Time;durP1;ratioP1;P1;durP2;ratioP2;P2;SDS_P1;SDS_P2;PMS_P1;PMS_P2;Temp;Humidity;BMP_temperature;BMP_pressure;BME280_temperature;BME280_humidity;BME280_pressure;Samples;Min_cycle;Max_cycle;Signal;HPM_P1;HPM_P2
2022/05/10 01:17:50;;;;;;;19.97;18.33;;;;;;;;;;6123627;23;21004;-88
2022/05/10 01:20:56;;;;;;;18.40;16.77;;;;;;;;;;6118708;23;20484;-88
2022/05/10 01:23:45;;;;;;;17.83;16.53;;;;;;;;;;6119679;23;20397;-88
2022/05/10 01:27:00;;;;;;;18.00;16.70;;;;;;;;;;6126960;23;20390;-90
2022/05/10 01:29:52;;;;;;;19.30;17.70;;;;;;;;;;6108730;23;20385;-87
2022/05/10 01:35:51;;;;;;;17.33;16.13;;;;;;;;;;6132782;23;20373;-89
2022/05/10 01:38:43;;;;;;;18.30;17.00;;;;;;;;;;6120813;23;20431;-89
2022/05/10 01:41:51;;;;;;;17.90;16.57;;;;;;;;;;6117733;23;20776;-89
2022/05/10 01:45:14;;;;;;;17.80;16.50;;;;;;;;;;6119732;23;20865;-89
2022/05/10 01:48:18;;;;;;;18.30;16.80;;;;;;;;;;6116254;23;20480;-89
2022/05/10 01:51:33;;;;;;;18.00;16.63;;;;;;;;;;6124973;23;20389;-88
2022/05/10 01:54:41;;;;;;;17.23;16.03;;;;;;;;;;6121587;23;20423;-89
2022/05/10 01:57:52;;;;;;;17.00;15.60;;;;;;;;;;6117708;23;20393;-89
2022/05/10 02:01:02;;;;;;;18.33;16.53;;;;;;;;;;6106835;23;20791;-88
2022/05/10 02:04:15;;;;;;;17.00;15.60;;;;;;;;;;6117467;23;20424;-88
2022/05/10 02:07:17;;;;;;;17.80;16.03;;;;;;;;;;6114086;23;20480;-89
2022/05/10 02:10:48;;;;;;;17.33;15.90;;;;;;;;;;6135594;23;20484;-88
2022/05/10 02:13:57;;;;;;;18.53;16.60;;;;;;;;;;6239502;22;20423;-88
2022/05/10 02:16:50;;;;;;;15.63;14.57;;;;;;;;;;6270301;22;20452;-89
2022/05/10 02:19:57;;;;;;;16.00;14.60;;;;;;;;;;6273079;22;20384;-89
2022/05/10 02:23:12;;;;;;;17.70;16.30;;;;;;;;;;6273014;22;20466;-88
2022/05/10 02:26:30;;;;;;;16.57;15.30;;;;;;;;;;6272227;22;20388;-89
2022/05/10 02:29:35;;;;;;;17.60;16.20;;;;;;;;;;6273130;22;20472;-88
2022/05/10 02:35:53;;;;;;;17.10;15.90;;;;;;;;;;6273802;22;20403;-88
2022/05/10 02:38:55;;;;;;;16.90;15.70;;;;;;;;;;6277161;22;20412;-89
2022/05/10 02:42:04;;;;;;;16.40;15.10;;;;;;;;;;6279530;22;20705;-89
2022/05/10 02:45:23;;;;;;;;;;;;;;;;;;;;;
2022/05/10 02:48:27;;;;;;;15.93;14.63;;;;;;;;;;6286831;22;20384;-89
2022/05/10 02:51:47;;;;;;;16.63;15.33;;;;;;;;;;6286129;22;20448;-89
2022/05/10 02:54:46;;;;;;;17.90;16.50;;;;;;;;;;6294688;22;20434;-89
2022/05/10 02:57:56;;;;;;;18.27;16.77;;;;;;;;;;6278843;22;20411;-88
2022/05/10 03:00:58;;;;;;;19.13;17.20;;;;;;;;;;6272519;22;20470;-89
2022/05/10 03:04:15;;;;;;;18.10;16.57;;;;;;;;;;6267291;22;20491;-88
2022/05/10 03:07:28;;;;;;;;;;;;;;;;;;;;;
2022/05/10 03:10:29;;;;;;;18.27;16.83;;;;;;;;;;6252026;22;20376;-88
2022/05/10 03:16:54;;;;;;;17.13;15.83;;;;;;;;;;6250202;22;20512;-89
2022/05/10 03:19:50;;;;;;;17.10;15.80;;;;;;;;;;6267910;22;20388;-89
2022/05/10 03:26:18;;;;;;;;;;;;;;;;;;;;;
2022/05/10 03:29:34;;;;;;;17.37;15.97;;;;;;;;;;6273967;22;20387;-88
2022/05/10 03:32:54;;;;;;;15.67;14.60;;;;;;;;;;6269752;22;20558;-88
2022/05/10 03:36:04;;;;;;;17.37;15.87;;;;;;;;;;6267581;22;20380;-88
2022/05/10 03:39:10;;;;;;;15.33;14.20;;;;;;;;;;6244002;22;20450;-88
2022/05/10 03:42:28;;;;;;;15.50;14.30;;;;;;;;;;6262636;22;20747;-87
2022/05/10 03:45:32;;;;;;;15.07;13.97;;;;;;;;;;6273257;22;20392;-88
2022/05/10 03:48:40;;;;;;;16.43;15.07;;;;;;;;;;6272624;22;20395;-88
2022/05/10 03:51:46;;;;;;;14.97;13.27;;;;;;;;;;6270892;22;20876;-88
2022/05/10 03:55:03;;;;;;;15.83;14.73;;;;;;;;;;6272122;22;20384;-86
2022/05/10 03:58:07;;;;;;;15.77;14.37;;;;;;;;;;6272021;22;20385;-88
2022/05/10 04:01:18;;;;;;;14.43;13.50;;;;;;;;;;6269086;22;20384;-88
2022/05/10 04:04:19;;;;;;;15.37;14.20;;;;;;;;;;6272220;22;20396;-88
2022/05/10 04:10:31;;;;;;;14.87;13.43;;;;;;;;;;6271971;22;20515;-89
2022/05/10 04:13:37;;;;;;;14.17;13.27;;;;;;;;;;6272447;22;20391;-88
2022/05/10 04:16:46;;;;;;;15.00;13.93;;;;;;;;;;6271643;22;20424;-88
2022/05/10 04:19:59;;;;;;;15.50;14.20;;;;;;;;;;6268058;22;20417;-88
2022/05/10 04:23:05;;;;;;;20.30;13.70;;;;;;;;;;6272430;22;20931;-89
2022/05/10 04:26:14;;;;;;;14.10;13.20;;;;;;;;;;6269924;22;21018;-88
2022/05/10 04:29:17;;;;;;;14.60;13.50;;;;;;;;;;6272033;22;20384;-89
2022/05/10 04:32:23;;;;;;;15.20;14.00;;;;;;;;;;6269703;22;20388;-87
2022/05/10 04:35:29;;;;;;;14.63;13.57;;;;;;;;;;6270706;22;20380;-88
2022/05/10 04:38:23;;;;;;;17.77;16.13;;;;;;;;;;6273681;22;20447;-88
2022/05/10 04:41:24;;;;;;;18.30;16.57;;;;;;;;;;6245190;22;20399;-88
2022/05/10 04:44:30;;;;;;;17.63;16.30;;;;;;;;;;6237739;22;20766;-91
2022/05/10 04:50:54;;;;;;;16.37;14.97;;;;;;;;;;6272047;22;20384;-89
2022/05/10 04:53:56;;;;;;;14.47;13.40;;;;;;;;;;6267025;22;20404;-88
2022/05/10 04:57:02;;;;;;;12.87;12.10;;;;;;;;;;6269599;22;20385;-89
2022/05/10 05:00:14;;;;;;;14.07;13.07;;;;;;;;;;6269581;22;20425;-90
2022/05/10 05:03:19;;;;;;;13.53;12.63;;;;;;;;;;6266715;22;20514;-88
2022/05/10 05:06:35;;;;;;;13.73;12.53;;;;;;;;;;6266567;22;20380;-89
2022/05/10 05:09:38;;;;;;;14.87;13.77;;;;;;;;;;6267605;22;20400;-88
2022/05/10 05:12:53;;;;;;;14.10;13.00;;;;;;;;;;6269335;22;20726;-89
2022/05/10 05:15:59;;;;;;;14.70;13.60;;;;;;;;;;6266094;22;20377;-87
2022/05/10 05:19:14;;;;;;;14.47;13.47;;;;;;;;;;6268510;22;20507;-87
2022/05/10 05:22:17;;;;;;;14.30;13.30;;;;;;;;;;6274685;22;20436;-90
2022/05/10 05:25:23;;;;;;;14.47;13.50;;;;;;;;;;6269018;22;20389;-87
2022/05/10 05:28:30;;;;;;;14.20;13.30;;;;;;;;;;6276761;22;20685;-90
2022/05/10 05:31:36;;;;;;;13.97;12.93;;;;;;;;;;6274674;22;20434;-90
2022/05/10 05:34:42;;;;;;;14.30;13.23;;;;;;;;;;6273958;22;20389;-90
2022/05/10 05:37:55;;;;;;;14.77;13.87;;;;;;;;;;6275526;22;20395;-89
2022/05/10 05:41:08;;;;;;;14.90;13.70;;;;;;;;;;6278494;22;20966;-90
2022/05/10 05:44:14;;;;;;;15.23;13.83;;;;;;;;;;6283432;22;20393;-89
2022/05/10 05:47:18;;;;;;;15.07;13.77;;;;;;;;;;6281817;22;20384;-89
2022/05/10 05:50:24;;;;;;;15.50;14.40;;;;;;;;;;6276829;22;20380;-89
2022/05/10 05:53:30;;;;;;;15.20;14.03;;;;;;;;;;6281331;22;20384;-88
2022/05/10 05:56:35;;;;;;;14.70;13.70;;;;;;;;;;6276898;22;20388;-89
2022/05/10 05:59:41;;;;;;;14.30;13.00;;;;;;;;;;6276860;22;20384;-87
2022/05/10 06:02:47;;;;;;;14.00;13.10;;;;;;;;;;6276469;22;20489;-88
2022/05/10 06:05:58;;;;;;;14.23;13.13;;;;;;;;;;6277726;22;20373;-88
2022/05/10 06:09:04;;;;;;;13.70;12.43;;;;;;;;;;6277046;22;20406;-90
2022/05/10 06:12:12;;;;;;;12.87;11.97;;;;;;;;;;6276696;22;20373;-90
2022/05/10 06:15:23;;;;;;;13.13;12.03;;;;;;;;;;6273099;22;20491;-90
2022/05/10 06:18:22;;;;;;;13.23;12.07;;;;;;;;;;6272861;22;20494;-89
2022/05/10 06:21:29;;;;;;;12.37;11.57;;;;;;;;;;6277090;22;20377;-90
2022/05/10 06:24:35;;;;;;;13.43;12.13;;;;;;;;;;6271918;22;20472;-90
2022/05/10 06:27:50;;;;;;;13.30;12.40;;;;;;;;;;6282983;22;20387;-91
2022/05/10 06:30:55;;;;;;;13.87;12.83;;;;;;;;;;6281337;22;20400;-90
2022/05/10 06:34:04;;;;;;;13.53;12.53;;;;;;;;;;6197171;22;20460;-89
2022/05/10 06:42:55;;;;;;;13.83;12.70;;;;;;;;;;6121418;23;20867;-90
2022/05/10 07:25:31;;;;;;;;;;;;;;;;;;;;;
2022/05/10 07:36:44;;;;;;;7.50;6.97;;;;;;;;;;6123850;22;20445;-89
2022/05/10 07:42:43;;;;;;;6.40;6.20;;;;;;;;;;6117508;22;20443;-91
2022/05/10 08:39:10;;;;;;;5.87;5.67;;;;;;;;;;6288209;22;20460;-89
2022/05/10 08:42:22;;;;;;;6.97;6.47;;;;;;;;;;6291572;22;20516;-91
2022/05/10 08:53:14;;;;;;;5.87;5.70;;;;;;;;;;6209342;22;20460;-90
2022/05/10 09:02:08;;;;;;;6.23;6.03;;;;;;;;;;6149217;22;20753;-91
2022/05/10 09:08:25;;;;;;;6.50;6.30;;;;;;;;;;6028923;23;20640;-91
2022/05/10 09:11:34;;;;;;;6.40;6.27;;;;;;;;;;6098973;23;20741;-91
2022/05/10 09:14:40;;;;;;;6.53;6.33;;;;;;;;;;6237571;22;20448;-89
2022/05/10 09:17:50;;;;;;;6.03;5.83;;;;;;;;;;6275839;22;20372;-88
2022/05/10 09:20:57;;;;;;;6.20;6.00;;;;;;;;;;6276052;22;20396;-88
2022/05/10 09:24:02;;;;;;;6.30;5.97;;;;;;;;;;6276121;22;20902;-90
2022/05/10 09:27:10;;;;;;;5.37;5.27;;;;;;;;;;6277595;22;20391;-89
2022/05/10 09:30:18;;;;;;;6.37;6.03;;;;;;;;;;6276255;22;20860;-90
2022/05/10 09:36:32;;;;;;;6.70;6.30;;;;;;;;;;6276520;22;20761;-89
2022/05/10 09:39:37;;;;;;;7.33;6.70;;;;;;;;;;6278999;22;20463;-89
2022/05/10 09:42:26;;;;;;;6.40;6.20;;;;;;;;;;6277530;22;20436;-90
2022/05/10 09:45:12;;;;;;;6.70;6.50;;;;;;;;;;6280420;22;20387;-89
2022/05/10 09:48:18;;;;;;;6.37;6.07;;;;;;;;;;6278007;22;20388;-89
2022/05/10 09:51:26;;;;;;;6.50;6.00;;;;;;;;;;6278033;22;20465;-89
2022/05/10 09:54:32;;;;;;;6.23;5.83;;;;;;;;;;6272257;22;20380;-91
2022/05/10 09:57:50;;;;;;;7.00;6.80;;;;;;;;;;6275799;22;20691;-90
2022/05/10 10:00:58;;;;;;;6.03;5.83;;;;;;;;;;6273265;22;20666;-91
2022/05/10 10:04:02;;;;;;;6.27;5.97;;;;;;;;;;6272428;22;20905;-90
2022/05/10 10:07:07;;;;;;;7.33;6.90;;;;;;;;;;6276252;22;20384;-91
2022/05/10 10:10:16;;;;;;;6.50;6.30;;;;;;;;;;6280957;22;20426;-91
2022/05/10 10:13:24;;;;;;;6.27;5.83;;;;;;;;;;6283735;22;20890;-89
2022/05/10 10:16:37;;;;;;;6.33;5.93;;;;;;;;;;6282152;22;20840;-93
2022/05/10 10:19:23;;;;;;;6.87;5.93;;;;;;;;;;6285509;22;20414;-90
2022/05/10 10:22:29;;;;;;;6.03;5.73;;;;;;;;;;6277542;22;20424;-93
2022/05/10 10:25:39;;;;;;;6.87;6.20;;;;;;;;;;6284995;22;20383;-88
2022/05/10 10:46:09;;;;;;;5.80;5.50;;;;;;;;;;6262421;23;20486;-90
2022/05/10 10:49:20;;;;;;;4.87;4.77;;;;;;;;;;6239984;23;20455;-89
2022/05/10 10:52:35;;;;;;;5.50;5.20;;;;;;;;;;6260762;23;20412;-90
2022/05/10 10:55:38;;;;;;;4.40;4.20;;;;;;;;;;6250356;23;20407;-87
2022/05/10 10:58:24;;;;;;;4.77;4.47;;;;;;;;;;6252009;23;20392;-88
2022/05/10 11:01:35;;;;;;;5.30;5.10;;;;;;;;;;6252756;23;20413;-87
2022/05/10 11:04:38;;;;;;;5.70;4.70;;;;;;;;;;6261954;22;20436;-92
2022/05/10 11:08:01;;;;;;;4.80;4.50;;;;;;;;;;6260419;23;20398;-92
2022/05/10 11:11:23;;;;;;;5.17;4.77;;;;;;;;;;6257430;23;20388;-90
2022/05/10 11:14:22;;;;;;;4.80;4.53;;;;;;;;;;6251551;23;20396;-90
2022/05/10 11:45:34;;;;;;;5.33;5.03;;;;;;;;;;6209729;22;20931;-90
2022/05/10 11:49:01;;;;;;;5.07;4.87;;;;;;;;;;6254129;22;20393;-92
2022/05/10 11:54:44;;;;;;;4.10;4.10;;;;;;;;;;6232936;22;20518;-90
2022/05/10 12:22:37;;;;;;;5.07;4.63;;;;;;;;;;6126602;23;20776;-91
2022/05/10 12:25:42;;;;;;;4.80;4.60;;;;;;;;;;6126833;23;20446;-89
2022/05/10 12:28:55;;;;;;;4.67;4.57;;;;;;;;;;6120924;23;20400;-88
2022/05/10 12:31:47;;;;;;;5.60;5.13;;;;;;;;;;6124084;23;20389;-88
2022/05/10 12:35:12;;;;;;;4.80;4.70;;;;;;;;;;6118776;23;20491;-87
2022/05/10 12:38:17;;;;;;;9.03;5.30;;;;;;;;;;6118511;23;20523;-88
2022/05/10 12:41:23;;;;;;;4.90;4.70;;;;;;;;;;6119064;23;20388;-88
2022/05/10 12:44:29;;;;;;;8.43;5.30;;;;;;;;;;6118622;23;20464;-87
2022/05/10 12:47:54;;;;;;;5.67;5.37;;;;;;;;;;6119797;23;20420;-87
2022/05/10 12:51:02;;;;;;;5.87;5.50;;;;;;;;;;6117154;23;20398;-87
2022/05/10 12:54:14;;;;;;;4.87;4.67;;;;;;;;;;6111756;23;20412;-88
2022/05/10 12:57:20;;;;;;;5.73;5.53;;;;;;;;;;6120174;23;20443;-86
2022/05/10 13:00:26;;;;;;;5.50;5.17;;;;;;;;;;6121659;23;21103;-88
2022/05/10 13:03:34;;;;;;;5.50;5.20;;;;;;;;;;6124015;23;20982;-87
2022/05/10 13:06:19;;;;;;;5.17;4.87;;;;;;;;;;6125274;23;20401;-87
2022/05/10 13:09:10;;;;;;;5.63;5.07;;;;;;;;;;6094987;23;21036;-88
2022/05/10 13:12:16;;;;;;;5.73;5.43;;;;;;;;;;6092602;23;20535;-88
2022/05/10 13:15:31;;;;;;;5.50;5.30;;;;;;;;;;6092072;23;20451;-88
2022/05/10 13:18:37;;;;;;;7.50;6.63;;;;;;;;;;6090913;23;20413;-88
2022/05/10 13:21:43;;;;;;;5.30;5.10;;;;;;;;;;6092435;23;20459;-88
2022/05/10 13:24:50;;;;;;;7.27;5.40;;;;;;;;;;6088559;23;20386;-88
2022/05/10 13:27:55;;;;;;;5.77;5.47;;;;;;;;;;6089812;23;20874;-88
2022/05/10 13:31:01;;;;;;;5.50;5.30;;;;;;;;;;6090144;23;20385;-85
2022/05/10 13:34:07;;;;;;;5.97;5.40;;;;;;;;;;6089459;23;20390;-89
2022/05/10 13:37:13;;;;;;;5.87;5.67;;;;;;;;;;6092286;23;20404;-90
2022/05/10 13:40:19;;;;;;;6.13;5.73;;;;;;;;;;6090383;23;20381;-89
2022/05/10 13:43:28;;;;;;;6.20;5.73;;;;;;;;;;6091855;23;20532;-88
2022/05/10 13:46:37;;;;;;;6.67;6.17;;;;;;;;;;6092205;23;20386;-91
2022/05/10 13:49:43;;;;;;;5.50;5.40;;;;;;;;;;6093534;23;20486;-90
2022/05/10 13:52:57;;;;;;;5.63;5.43;;;;;;;;;;6099621;23;20389;-92
2022/05/10 13:56:03;;;;;;;6.20;5.80;;;;;;;;;;6097426;23;20398;-90
2022/05/10 13:59:10;;;;;;;5.57;5.27;;;;;;;;;;6092448;23;20400;-89
2022/05/10 14:02:15;;;;;;;5.40;5.20;;;;;;;;;;6093194;23;20984;-90
2022/05/10 14:05:21;;;;;;;5.93;5.73;;;;;;;;;;6090942;23;20476;-90
2022/05/10 14:08:28;;;;;;;6.73;5.77;;;;;;;;;;6091279;23;20668;-89
2022/05/10 14:11:36;;;;;;;5.57;5.37;;;;;;;;;;6093314;23;20475;-90
2022/05/10 14:14:46;;;;;;;5.30;4.90;;;;;;;;;;6093167;23;20967;-88
2022/05/10 14:17:52;;;;;;;6.73;5.97;;;;;;;;;;6095000;23;20393;-87
2022/05/10 14:21:01;;;;;;;5.73;5.53;;;;;;;;;;6094459;23;20426;-89
2022/05/10 14:24:04;;;;;;;6.10;5.80;;;;;;;;;;6094859;23;20857;-90
2022/05/10 14:27:10;;;;;;;5.80;5.50;;;;;;;;;;6096394;23;20400;-91
2022/05/10 14:30:15;;;;;;;6.43;6.13;;;;;;;;;;6102537;23;20390;-91
2022/05/10 14:33:21;;;;;;;5.73;5.53;;;;;;;;;;6093558;23;20394;-90
2022/05/10 14:36:27;;;;;;;5.97;5.50;;;;;;;;;;6093174;23;20427;-91
2022/05/10 14:39:40;;;;;;;10.07;5.60;;;;;;;;;;6096849;23;20498;-91
2022/05/10 14:42:53;;;;;;;6.40;6.10;;;;;;;;;;6096980;23;20433;-90
2022/05/10 14:46:05;;;;;;;5.73;5.23;;;;;;;;;;6098163;23;20397;-87
2022/05/10 14:49:16;;;;;;;5.27;4.97;;;;;;;;;;6099426;23;20439;-89
2022/05/10 14:52:20;;;;;;;5.70;5.30;;;;;;;;;;6099515;23;20412;-87
2022/05/10 14:55:26;;;;;;;6.03;5.70;;;;;;;;;;6096466;23;20386;-88
2022/05/10 14:58:32;;;;;;;5.17;4.87;;;;;;;;;;6100177;23;20646;-88
2022/05/10 15:01:19;;;;;;;5.30;4.90;;;;;;;;;;6100795;23;20453;-89
2022/05/10 15:04:11;;;;;;;5.30;4.80;;;;;;;;;;6099117;23;20453;-88
2022/05/10 15:13:48;;;;;;;4.50;4.20;;;;;;;;;;5946382;23;20406;-91
2022/05/10 15:17:10;;;;;;;5.80;5.40;;;;;;;;;;5922293;23;20399;-93
2022/05/10 15:20:10;;;;;;;5.50;5.20;;;;;;;;;;5945978;23;20400;-90
2022/05/10 15:23:31;;;;;;;4.90;4.60;;;;;;;;;;5937593;23;20470;-92
2022/05/10 15:26:43;;;;;;;5.17;4.90;;;;;;;;;;6137154;23;20481;-89
2022/05/10 15:30:05;;;;;;;;;;;;;;;;;;;;;
2022/05/10 15:39:31;;;;;;;5.50;5.17;;;;;;;;;;6109254;23;20397;-92
2022/05/10 15:42:49;;;;;;;5.17;4.77;;;;;;;;;;6125647;23;20429;-90
2022/05/10 15:45:55;;;;;;;28.83;26.33;;;;;;;;;;6125408;23;20425;-90
2022/05/10 15:48:42;;;;;;;5.73;5.40;;;;;;;;;;6126442;22;20445;-87
2022/05/10 15:52:02;;;;;;;9.30;5.67;;;;;;;;;;6254440;23;20476;-91
2022/05/10 15:55:06;;;;;;;4.93;4.70;;;;;;;;;;6220657;22;20393;-90
2022/05/10 15:58:04;;;;;;;4.90;4.60;;;;;;;;;;6249980;23;20369;-88
2022/05/10 16:01:19;;;;;;;;;;;;;;;;;;;;;
2022/05/10 16:04:16;;;;;;;4.87;4.60;;;;;;;;;;6113512;23;20390;-91
2022/05/10 16:07:06;;;;;;;4.73;4.63;;;;;;;;;;6250019;23;20754;-92
2022/05/10 16:09:32;;;;;;;5.63;5.10;;;;;;;;;;6228645;23;20389;-88
2022/05/10 16:12:36;;;;;;;5.97;5.47;;;;;;;;;;6254172;23;20435;-95
2022/05/10 16:15:14;;;;;;;;;;;;;;;;;;;;;
2022/05/10 16:17:41;;;;;;;5.63;5.33;;;;;;;;;;6258330;23;20388;-92
2022/05/10 16:20:13;;;;;;;5.83;5.40;;;;;;;;;;6234474;23;20453;-90
2022/05/10 16:22:43;;;;;;;5.57;5.27;;;;;;;;;;6228419;23;20491;-92
2022/05/10 16:25:39;;;;;;;5.13;5.03;;;;;;;;;;6230598;23;20916;-87
2022/05/10 16:32:04;;;;;;;5.37;5.03;;;;;;;;;;6259783;23;20408;-91
2022/05/10 16:34:54;;;;;;;5.50;5.13;;;;;;;;;;6251457;23;20711;-93
2022/05/10 16:38:03;;;;;;;5.20;4.87;;;;;;;;;;6256498;22;20774;-93
2022/05/10 16:40:58;;;;;;;7.93;5.57;;;;;;;;;;6257119;23;20869;-91
2022/05/10 16:44:05;;;;;;;5.30;4.90;;;;;;;;;;6255676;23;20433;-93
2022/05/10 17:49:41;;;;;;;6.47;6.10;;;;;;;;;;6163506;23;20563;-92
2022/05/10 17:52:43;;;;;;;9.97;4.90;;;;;;;;;;6151944;23;20401;-93
2022/05/10 17:58:11;;;;;;;5.70;5.13;;;;;;;;;;6215125;22;20470;-90
2022/05/10 18:01:24;;;;;;;6.40;5.83;;;;;;;;;;6298817;22;20442;-92
2022/05/10 18:04:34;;;;;;;5.10;4.90;;;;;;;;;;6300331;22;20403;-91
2022/05/10 18:23:48;;;;;;;5.23;4.90;;;;;;;;;;6171469;23;20467;-89
2022/05/10 18:27:10;;;;;;;8.10;6.13;;;;;;;;;;6173303;23;20400;-91
2022/05/10 18:30:03;;;;;;;5.87;5.50;;;;;;;;;;6162408;23;20387;-92
2022/05/10 18:33:09;;;;;;;5.43;5.23;;;;;;;;;;6162799;23;20409;-92
2022/05/10 18:36:15;;;;;;;6.00;5.70;;;;;;;;;;6164085;23;20396;-88
2022/05/10 18:39:30;;;;;;;5.67;5.37;;;;;;;;;;6154045;23;20886;-92
2022/05/10 18:42:47;;;;;;;5.90;5.70;;;;;;;;;;6158307;23;20485;-92
2022/05/10 18:45:48;;;;;;;7.30;6.70;;;;;;;;;;6159003;23;20399;-93
2022/05/10 18:52:13;;;;;;;6.93;6.40;;;;;;;;;;6158657;23;20388;-92
2022/05/10 19:03:58;;;;;;;;;;;;;;;;;;;;;
2022/05/10 19:07:00;;;;;;;6.73;6.33;;;;;;;;;;6354708;22;20389;-92
2022/05/10 19:10:18;;;;;;;7.90;7.30;;;;;;;;;;6322472;22;20388;-91
2022/05/10 19:16:30;;;;;;;7.40;6.80;;;;;;;;;;6303292;22;20440;-92
2022/05/10 19:20:15;;;;;;;6.97;6.47;;;;;;;;;;6315239;22;20469;-90
2022/05/10 19:22:51;;;;;;;7.87;7.37;;;;;;;;;;6303917;22;20412;-91
2022/05/10 19:25:57;;;;;;;8.20;7.63;;;;;;;;;;6311006;22;20574;-91
2022/05/10 19:29:04;;;;;;;12.73;7.70;;;;;;;;;;6305314;22;20383;-91
2022/05/10 19:31:49;;;;;;;8.37;7.00;;;;;;;;;;6314268;22;20818;-88
2022/05/10 19:34:15;;;;;;;8.90;7.73;;;;;;;;;;6303755;22;20416;-89
2022/05/10 19:36:44;;;;;;;7.97;7.57;;;;;;;;;;6303459;22;20698;-89
2022/05/10 19:39:15;;;;;;;10.40;7.50;;;;;;;;;;6276249;22;20391;-89
2022/05/10 19:41:44;;;;;;;7.93;7.13;;;;;;;;;;6301379;22;20467;-89
2022/05/10 19:44:11;;;;;;;7.43;7.00;;;;;;;;;;6274274;22;20740;-87
2022/05/10 19:46:37;;;;;;;9.70;7.43;;;;;;;;;;6277788;22;20453;-89
2022/05/10 19:49:04;;;;;;;7.57;7.03;;;;;;;;;;6306019;22;20581;-88
2022/05/10 19:51:34;;;;;;;7.40;6.90;;;;;;;;;;6276374;22;20384;-89
2022/05/10 19:54:06;;;;;;;7.47;7.03;;;;;;;;;;6305641;22;20474;-89
2022/05/10 19:56:38;;;;;;;8.07;6.70;;;;;;;;;;6270035;22;20392;-90
2022/05/10 19:59:07;;;;;;;7.40;6.80;;;;;;;;;;6277240;22;20399;-89
2022/05/10 20:08:24;;;;;;;6.63;6.13;;;;;;;;;;6263510;22;20461;-90
2022/05/10 20:11:32;;;;;;;6.43;5.90;;;;;;;;;;6297174;22;20391;-89
2022/05/10 20:14:36;;;;;;;9.20;5.63;;;;;;;;;;6299893;22;20379;-88
2022/05/10 20:17:41;;;;;;;6.33;5.63;;;;;;;;;;6301690;22;20371;-88
2022/05/10 20:21:04;;;;;;;;;;;;;;;;;;;;;
2022/05/10 20:24:13;;;;;;;6.80;6.17;;;;;;;;;;6300604;22;20975;-90
2022/05/10 20:27:06;;;;;;;6.27;5.87;;;;;;;;;;6299160;22;20371;-89
2022/05/10 20:30:12;;;;;;;6.20;5.80;;;;;;;;;;6297150;22;20389;-89
2022/05/10 20:33:18;;;;;;;6.07;5.57;;;;;;;;;;6299337;22;20384;-89
2022/05/10 20:36:29;;;;;;;6.43;6.00;;;;;;;;;;6298630;22;20716;-90
2022/05/10 20:39:43;;;;;;;;;;;;;;;;;;;;;
2022/05/10 20:42:43;;;;;;;5.70;5.10;;;;;;;;;;6302059;22;20587;-89
2022/05/10 20:45:51;;;;;;;5.90;5.40;;;;;;;;;;6297480;22;20373;-89
2022/05/10 20:49:05;;;;;;;6.70;6.17;;;;;;;;;;6299670;22;21168;-88
2022/05/10 20:52:19;;;;;;;5.73;5.33;;;;;;;;;;6320588;22;20388;-90
2022/05/10 21:02:17;;;;;;;;;;;;;;;;;;;;;
2022/05/10 23:25:38;;;;;;;3.00;3.00;;;;;;;;;;6117556;22;20478;-90
2022/05/10 23:31:43;;;;;;;3.47;3.30;;;;;;;;;;6182265;23;20395;-90
2022/05/10 23:34:58;;;;;;;2.90;2.87;;;;;;;;;;6178932;23;20390;-90
2022/05/10 23:44:46;;;;;;;3.57;3.37;;;;;;;;;;6148902;23;20384;-89
2022/05/10 23:47:57;;;;;;;4.03;3.93;;;;;;;;;;6157744;23;20966;-89
2022/05/10 23:57:22;;;;;;;6.97;4.33;;;;;;;;;;6149489;23;20433;-91
